sensor_id;sensor_type;location;lat;lon;timestamp;pressure;altitude;pressure_sealevel;temperature;humidity
46722;BME280;32455;43.430;23.136;2023-04-26T00:01:13;97203.56;;;8.64;100.00
46722;BME280;32455;43.430;23.136;2023-04-26T00:03:59;97206.13;;;8.47;100.00
46722;BME280;32455;43.430;23.136;2023-04-26T00:06:44;97196.56;;;8.16;100.00
46722;BME280;32455;43.430;23.136;2023-04-26T00:09:30;97206.88;;;7.89;100.00
46722;BME280;32455;43.430;23.136;2023-04-26T00:12:15;97197.94;;;7.65;100.00
46722;BME280;32455;43.430;23.136;2023-04-26T00:15:00;97197.81;;;7.60;100.00
46722;BME280;32455;43.430;23.136;2023-04-26T00:17:46;97191.28;;;7.26;100.00
46722;BME280;32455;43.430;23.136;2023-04-26T00:20:31;97184.97;;;7.39;100.00
46722;BME280;32455;43.430;23.136;2023-04-26T00:23:17;97184.53;;;7.23;100.00
46722;BME280;32455;43.430;23.136;2023-04-26T00:26:02;97178.75;;;7.26;100.00
46722;BME280;32455;43.430;23.136;2023-04-26T00:28:48;97160.84;;;7.27;100.00
46722;BME280;32455;43.430;23.136;2023-04-26T00:31:33;97182.72;;;7.54;100.00
46722;BME280;32455;43.430;23.136;2023-04-26T00:34:18;97175.47;;;7.85;100.00
46722;BME280;32455;43.430;23.136;2023-04-26T00:37:04;97167.66;;;7.71;100.00
46722;BME280;32455;43.430;23.136;2023-04-26T00:39:48;97162.59;;;7.51;100.00
46722;BME280;32455;43.430;23.136;2023-04-26T00:42:33;97154.16;;;7.36;100.00
46722;BME280;32455;43.430;23.136;2023-04-26T00:45:18;97162.09;;;7.43;100.00
46722;BME280;32455;43.430;23.136;2023-04-26T00:48:04;97143.75;;;7.16;100.00
46722;BME280;32455;43.430;23.136;2023-04-26T00:50:49;97132.09;;;7.11;100.00
46722;BME280;32455;43.430;23.136;2023-04-26T00:53:35;97149.72;;;7.30;100.00
46722;BME280;32455;43.430;23.136;2023-04-26T00:56:21;97125.63;;;7.18;100.00
46722;BME280;32455;43.430;23.136;2023-04-26T00:59:08;97130.56;;;7.33;100.00
46722;BME280;32455;43.430;23.136;2023-04-26T01:01:54;97151.31;;;7.61;100.00
46722;BME280;32455;43.430;23.136;2023-04-26T01:04:40;97143.94;;;7.87;100.00
46722;BME280;32455;43.430;23.136;2023-04-26T01:07:26;97160.97;;;8.27;100.00
46722;BME280;32455;43.430;23.136;2023-04-26T01:10:12;97162.47;;;8.23;100.00
46722;BME280;32455;43.430;23.136;2023-04-26T01:12:58;97147.28;;;7.70;100.00
46722;BME280;32455;43.430;23.136;2023-04-26T01:15:45;97139.94;;;7.66;100.00
46722;BME280;32455;43.430;23.136;2023-04-26T01:18:30;97149.22;;;7.51;100.00
46722;BME280;32455;43.430;23.136;2023-04-26T01:21:24;97165.16;;;7.58;100.00
46722;BME280;32455;43.430;23.136;2023-04-26T01:24:11;97159.13;;;7.74;100.00
46722;BME280;32455;43.430;23.136;2023-04-26T01:26:57;97160.22;;;7.85;100.00
46722;BME280;32455;43.430;23.136;2023-04-26T01:29:42;97148.00;;;7.77;100.00
46722;BME280;32455;43.430;23.136;2023-04-26T01:32:28;97155.00;;;7.90;100.00
46722;BME280;32455;43.430;23.136;2023-04-26T01:35:13;97177.56;;;8.18;100.00
46722;BME280;32455;43.430;23.136;2023-04-26T01:37:58;97177.22;;;8.26;100.00
46722;BME280;32455;43.430;23.136;2023-04-26T01:40:43;97177.69;;;8.35;100.00
46722;BME280;32455;43.430;23.136;2023-04-26T01:43:30;97190.22;;;8.41;100.00
46722;BME280;32455;43.430;23.136;2023-04-26T01:46:15;97183.78;;;8.18;100.00
46722;BME280;32455;43.430;23.136;2023-04-26T01:49:01;97168.41;;;8.14;100.00
46722;BME280;32455;43.430;23.136;2023-04-26T01:51:46;97172.44;;;7.81;100.00
46722;BME280;32455;43.430;23.136;2023-04-26T01:54:32;97190.84;;;8.01;100.00
46722;BME280;32455;43.430;23.136;2023-04-26T01:57:18;97193.31;;;8.14;100.00
46722;BME280;32455;43.430;23.136;2023-04-26T02:00:03;97186.78;;;8.22;100.00
46722;BME280;32455;43.430;23.136;2023-04-26T02:02:49;97171.78;;;8.21;100.00
46722;BME280;32455;43.430;23.136;2023-04-26T02:05:34;97182.38;;;8.51;100.00
46722;BME280;32455;43.430;23.136;2023-04-26T02:08:20;97186.13;;;8.50;100.00
46722;BME280;32455;43.430;23.136;2023-04-26T02:11:05;97199.16;;;8.58;100.00
46722;BME280;32455;43.430;23.136;2023-04-26T02:13:52;97175.66;;;8.48;100.00
46722;BME280;32455;43.430;23.136;2023-04-26T02:16:38;97181.81;;;8.49;100.00
46722;BME280;32455;43.430;23.136;2023-04-26T02:19:24;97190.19;;;8.64;100.00
46722;BME280;32455;43.430;23.136;2023-04-26T02:22:09;97195.88;;;8.68;100.00
46722;BME280;32455;43.430;23.136;2023-04-26T02:24:54;97188.09;;;8.78;100.00
46722;BME280;32455;43.430;23.136;2023-04-26T02:27:39;97185.16;;;8.91;100.00
46722;BME280;32455;43.430;23.136;2023-04-26T02:30:25;97174.09;;;8.88;100.00
46722;BME280;32455;43.430;23.136;2023-04-26T02:33:10;97170.34;;;9.00;100.00
46722;BME280;32455;43.430;23.136;2023-04-26T02:35:56;97151.56;;;9.12;100.00
46722;BME280;32455;43.430;23.136;2023-04-26T02:38:41;97158.88;;;9.17;100.00
46722;BME280;32455;43.430;23.136;2023-04-26T02:41:27;97157.28;;;9.04;100.00
46722;BME280;32455;43.430;23.136;2023-04-26T02:44:12;97156.84;;;8.95;100.00
46722;BME280;32455;43.430;23.136;2023-04-26T02:46:58;97152.44;;;8.77;100.00
46722;BME280;32455;43.430;23.136;2023-04-26T02:49:43;97131.97;;;8.60;100.00
46722;BME280;32455;43.430;23.136;2023-04-26T02:52:28;97132.34;;;8.51;100.00
46722;BME280;32455;43.430;23.136;2023-04-26T02:55:13;97139.50;;;8.86;100.00
46722;BME280;32455;43.430;23.136;2023-04-26T02:57:58;97123.13;;;8.59;100.00
46722;BME280;32455;43.430;23.136;2023-04-26T03:00:47;97136.53;;;8.59;100.00
46722;BME280;32455;43.430;23.136;2023-04-26T03:03:32;97129.44;;;8.41;100.00
46722;BME280;32455;43.430;23.136;2023-04-26T03:06:18;97141.44;;;8.39;100.00
46722;BME280;32455;43.430;23.136;2023-04-26T03:09:03;97123.28;;;8.41;100.00
46722;BME280;32455;43.430;23.136;2023-04-26T03:11:49;97135.09;;;8.68;98.80
46722;BME280;32455;43.430;23.136;2023-04-26T03:14:35;97131.41;;;8.58;100.00
46722;BME280;32455;43.430;23.136;2023-04-26T03:17:20;97134.91;;;8.46;100.00
46722;BME280;32455;43.430;23.136;2023-04-26T03:20:06;97134.88;;;8.35;100.00
46722;BME280;32455;43.430;23.136;2023-04-26T03:22:51;97149.78;;;8.31;100.00
46722;BME280;32455;43.430;23.136;2023-04-26T03:25:37;97149.09;;;8.59;99.87
46722;BME280;32455;43.430;23.136;2023-04-26T03:28:23;97147.91;;;8.78;98.72
46722;BME280;32455;43.430;23.136;2023-04-26T03:31:08;97151.59;;;8.89;96.17
46722;BME280;32455;43.430;23.136;2023-04-26T03:33:53;97160.44;;;9.01;96.86
46722;BME280;32455;43.430;23.136;2023-04-26T03:36:39;97153.19;;;9.01;94.82
46722;BME280;32455;43.430;23.136;2023-04-26T03:39:24;97178.22;;;9.07;94.63
46722;BME280;32455;43.430;23.136;2023-04-26T03:42:10;97164.09;;;8.83;97.35
46722;BME280;32455;43.430;23.136;2023-04-26T03:44:55;97174.09;;;8.88;97.64
46722;BME280;32455;43.430;23.136;2023-04-26T03:47:41;97160.16;;;8.74;99.09
46722;BME280;32455;43.430;23.136;2023-04-26T03:50:26;97189.34;;;8.87;100.00
46722;BME280;32455;43.430;23.136;2023-04-26T03:53:12;97167.22;;;9.20;98.66
46722;BME280;32455;43.430;23.136;2023-04-26T03:55:57;97180.41;;;9.50;97.54
46722;BME280;32455;43.430;23.136;2023-04-26T03:58:42;97159.53;;;8.95;100.00
46722;BME280;32455;43.430;23.136;2023-04-26T04:01:27;97169.34;;;8.78;100.00
46722;BME280;32455;43.430;23.136;2023-04-26T04:04:12;97169.81;;;8.75;100.00
46722;BME280;32455;43.430;23.136;2023-04-26T04:06:58;97177.69;;;8.93;100.00
46722;BME280;32455;43.430;23.136;2023-04-26T04:09:43;97166.19;;;9.21;99.29
46722;BME280;32455;43.430;23.136;2023-04-26T04:12:28;97161.19;;;9.42;97.89
46722;BME280;32455;43.430;23.136;2023-04-26T04:15:13;97170.94;;;9.60;97.46
46722;BME280;32455;43.430;23.136;2023-04-26T04:17:59;97175.69;;;9.86;92.44
46722;BME280;32455;43.430;23.136;2023-04-26T04:20:44;97182.63;;;10.16;90.07
46722;BME280;32455;43.430;23.136;2023-04-26T04:23:30;97195.34;;;10.37;87.94
46722;BME280;32455;43.430;23.136;2023-04-26T04:26:16;97207.28;;;10.63;85.94
46722;BME280;32455;43.430;23.136;2023-04-26T04:29:02;97193.59;;;10.65;85.89
46722;BME280;32455;43.430;23.136;2023-04-26T04:31:52;97195.91;;;10.78;85.40
46722;BME280;32455;43.430;23.136;2023-04-26T04:34:38;97217.06;;;10.91;87.33
46722;BME280;32455;43.430;23.136;2023-04-26T04:37:24;97218.78;;;10.97;88.91
46722;BME280;32455;43.430;23.136;2023-04-26T04:40:10;97216.56;;;10.94;84.30
46722;BME280;32455;43.430;23.136;2023-04-26T04:42:56;97206.03;;;10.88;84.38
46722;BME280;32455;43.430;23.136;2023-04-26T04:45:41;97216.41;;;11.23;86.11
46722;BME280;32455;43.430;23.136;2023-04-26T04:48:27;97205.56;;;10.96;84.49
46722;BME280;32455;43.430;23.136;2023-04-26T04:51:12;97221.94;;;10.94;85.64
46722;BME280;32455;43.430;23.136;2023-04-26T04:53:57;97232.09;;;11.09;80.43
46722;BME280;32455;43.430;23.136;2023-04-26T04:56:43;97233.44;;;10.90;82.95
46722;BME280;32455;43.430;23.136;2023-04-26T04:59:29;97215.63;;;10.84;83.85
46722;BME280;32455;43.430;23.136;2023-04-26T05:02:15;97221.63;;;10.91;86.15
46722;BME280;32455;43.430;23.136;2023-04-26T05:05:00;97225.38;;;10.90;86.77
46722;BME280;32455;43.430;23.136;2023-04-26T05:07:45;97215.81;;;10.99;83.35
46722;BME280;32455;43.430;23.136;2023-04-26T05:10:31;97210.16;;;10.78;81.73
46722;BME280;32455;43.430;23.136;2023-04-26T05:13:16;97196.25;;;10.82;83.90
46722;BME280;32455;43.430;23.136;2023-04-26T05:16:01;97211.66;;;10.69;84.10
46722;BME280;32455;43.430;23.136;2023-04-26T05:18:46;97214.41;;;10.74;85.03
46722;BME280;32455;43.430;23.136;2023-04-26T05:21:32;97214.94;;;10.55;85.93
46722;BME280;32455;43.430;23.136;2023-04-26T05:24:17;97208.25;;;10.57;81.34
46722;BME280;32455;43.430;23.136;2023-04-26T05:27:02;97211.81;;;10.80;84.86
46722;BME280;32455;43.430;23.136;2023-04-26T05:29:48;97219.66;;;11.03;81.25
46722;BME280;32455;43.430;23.136;2023-04-26T05:32:34;97211.91;;;11.07;80.14
46722;BME280;32455;43.430;23.136;2023-04-26T05:35:19;97220.44;;;11.03;80.11
46722;BME280;32455;43.430;23.136;2023-04-26T05:38:04;97217.06;;;11.13;83.45
46722;BME280;32455;43.430;23.136;2023-04-26T05:40:49;97227.50;;;11.26;78.90
46722;BME280;32455;43.430;23.136;2023-04-26T05:43:36;97212.22;;;11.32;82.03
46722;BME280;32455;43.430;23.136;2023-04-26T05:46:20;97205.06;;;11.43;81.80
46722;BME280;32455;43.430;23.136;2023-04-26T05:49:06;97224.19;;;11.68;81.55
46722;BME280;32455;43.430;23.136;2023-04-26T05:51:51;97224.53;;;11.77;81.36
46722;BME280;32455;43.430;23.136;2023-04-26T05:54:36;97228.97;;;11.61;77.81
46722;BME280;32455;43.430;23.136;2023-04-26T05:57:22;97223.59;;;11.61;78.65
46722;BME280;32455;43.430;23.136;2023-04-26T06:00:08;97226.56;;;11.87;77.16
46722;BME280;32455;43.430;23.136;2023-04-26T06:02:53;97233.53;;;12.10;73.76
46722;BME280;32455;43.430;23.136;2023-04-26T06:05:39;97240.66;;;12.26;70.46
46722;BME280;32455;43.430;23.136;2023-04-26T06:08:25;97221.13;;;12.41;73.71
46722;BME280;32455;43.430;23.136;2023-04-26T06:11:12;97231.38;;;12.44;68.51
46722;BME280;32455;43.430;23.136;2023-04-26T06:13:58;97239.31;;;12.56;71.74
46722;BME280;32455;43.430;23.136;2023-04-26T06:16:43;97237.47;;;12.29;66.90
46722;BME280;32455;43.430;23.136;2023-04-26T06:19:28;97228.97;;;12.42;68.19
46722;BME280;32455;43.430;23.136;2023-04-26T06:22:14;97225.25;;;12.53;70.45
46722;BME280;32455;43.430;23.136;2023-04-26T06:24:59;97236.50;;;12.77;67.55
46722;BME280;32455;43.430;23.136;2023-04-26T06:27:43;97243.00;;;12.82;64.01
46722;BME280;32455;43.430;23.136;2023-04-26T06:30:29;97242.59;;;13.10;64.89
46722;BME280;32455;43.430;23.136;2023-04-26T06:33:15;97240.19;;;13.14;60.41
46722;BME280;32455;43.430;23.136;2023-04-26T06:36:00;97246.91;;;13.53;63.41
46722;BME280;32455;43.430;23.136;2023-04-26T06:38:46;97250.53;;;13.27;58.83
46722;BME280;32455;43.430;23.136;2023-04-26T06:41:31;97253.44;;;13.68;63.67
46722;BME280;32455;43.430;23.136;2023-04-26T06:44:16;97256.44;;;13.87;62.68
46722;BME280;32455;43.430;23.136;2023-04-26T06:47:08;97253.59;;;13.41;60.25
46722;BME280;32455;43.430;23.136;2023-04-26T06:49:54;97245.75;;;13.39;57.26
46722;BME280;32455;43.430;23.136;2023-04-26T06:52:39;97238.75;;;13.43;57.31
46722;BME280;32455;43.430;23.136;2023-04-26T06:55:25;97258.63;;;13.95;62.55
46722;BME280;32455;43.430;23.136;2023-04-26T06:58:10;97262.75;;;14.18;56.73
46722;BME280;32455;43.430;23.136;2023-04-26T07:00:56;97256.13;;;13.73;53.59
46722;BME280;32455;43.430;23.136;2023-04-26T07:03:41;97247.44;;;13.56;57.80
46722;BME280;32455;43.430;23.136;2023-04-26T07:06:27;97249.03;;;13.46;54.43
46722;BME280;32455;43.430;23.136;2023-04-26T07:09:12;97259.03;;;13.51;55.37
46722;BME280;32455;43.430;23.136;2023-04-26T07:11:57;97270.34;;;13.48;53.33
46722;BME280;32455;43.430;23.136;2023-04-26T07:14:43;97272.41;;;13.88;50.34
46722;BME280;32455;43.430;23.136;2023-04-26T07:17:28;97273.72;;;13.91;50.57
46722;BME280;32455;43.430;23.136;2023-04-26T07:20:13;97282.38;;;13.88;51.48
46722;BME280;32455;43.430;23.136;2023-04-26T07:23:03;97281.47;;;13.62;50.49
46722;BME280;32455;43.430;23.136;2023-04-26T07:25:48;97271.28;;;13.79;49.33
46722;BME280;32455;43.430;23.136;2023-04-26T07:28:34;97276.41;;;13.70;50.11
46722;BME280;32455;43.430;23.136;2023-04-26T07:31:19;97284.19;;;13.67;50.16
46722;BME280;32455;43.430;23.136;2023-04-26T07:34:03;97277.59;;;14.15;51.21
46722;BME280;32455;43.430;23.136;2023-04-26T07:36:49;97276.19;;;13.97;51.62
46722;BME280;32455;43.430;23.136;2023-04-26T07:39:34;97287.59;;;14.15;50.70
46722;BME280;32455;43.430;23.136;2023-04-26T07:42:20;97313.13;;;13.82;49.29
46722;BME280;32455;43.430;23.136;2023-04-26T07:45:05;97314.53;;;13.99;49.01
46722;BME280;32455;43.430;23.136;2023-04-26T07:47:50;97301.41;;;14.44;47.63
46722;BME280;32455;43.430;23.136;2023-04-26T07:50:36;97299.81;;;14.63;47.88
46722;BME280;32455;43.430;23.136;2023-04-26T07:53:21;97309.50;;;14.39;48.58
46722;BME280;32455;43.430;23.136;2023-04-26T07:56:07;97297.59;;;14.29;49.45
46722;BME280;32455;43.430;23.136;2023-04-26T07:58:53;97302.19;;;14.14;51.55
46722;BME280;32455;43.430;23.136;2023-04-26T08:01:39;97304.50;;;13.85;50.92
46722;BME280;32455;43.430;23.136;2023-04-26T08:04:33;97315.22;;;13.59;50.68
46722;BME280;32455;43.430;23.136;2023-04-26T08:07:19;97318.97;;;14.31;50.08
46722;BME280;32455;43.430;23.136;2023-04-26T08:10:05;97306.69;;;13.93;50.13
46722;BME280;32455;43.430;23.136;2023-04-26T08:12:50;97303.19;;;13.97;52.56
46722;BME280;32455;43.430;23.136;2023-04-26T08:15:36;97309.78;;;14.42;48.66
46722;BME280;32455;43.430;23.136;2023-04-26T08:18:21;97322.41;;;14.01;49.53
46722;BME280;32455;43.430;23.136;2023-04-26T08:21:07;97320.91;;;13.68;49.01
46722;BME280;32455;43.430;23.136;2023-04-26T08:23:52;97313.72;;;13.99;50.98
46722;BME280;32455;43.430;23.136;2023-04-26T08:26:38;97332.53;;;13.73;50.40
46722;BME280;32455;43.430;23.136;2023-04-26T08:29:25;97315.81;;;13.76;50.56
46722;BME280;32455;43.430;23.136;2023-04-26T08:32:11;97326.34;;;13.78;51.27
46722;BME280;32455;43.430;23.136;2023-04-26T08:34:57;97331.53;;;13.85;51.18
46722;BME280;32455;43.430;23.136;2023-04-26T08:37:42;97317.16;;;13.74;51.29
46722;BME280;32455;43.430;23.136;2023-04-26T08:40:28;97337.16;;;13.83;52.82
46722;BME280;32455;43.430;23.136;2023-04-26T08:43:15;97328.69;;;13.59;51.88
46722;BME280;32455;43.430;23.136;2023-04-26T08:46:03;97342.34;;;13.90;52.36
46722;BME280;32455;43.430;23.136;2023-04-26T08:49:04;97327.94;;;13.74;51.34
46722;BME280;32455;43.430;23.136;2023-04-26T08:51:55;97344.09;;;13.64;52.21
46722;BME280;32455;43.430;23.136;2023-04-26T08:54:42;97356.75;;;14.21;53.30
46722;BME280;32455;43.430;23.136;2023-04-26T08:57:30;97357.69;;;14.52;52.48
46722;BME280;32455;43.430;23.136;2023-04-26T09:00:17;97367.41;;;14.58;50.18
46722;BME280;32455;43.430;23.136;2023-04-26T09:03:04;97356.44;;;14.07;50.24
46722;BME280;32455;43.430;23.136;2023-04-26T09:05:49;97345.94;;;14.26;49.85
46722;BME280;32455;43.430;23.136;2023-04-26T09:08:35;97350.09;;;14.54;53.72
46722;BME280;32455;43.430;23.136;2023-04-26T09:11:25;97357.31;;;14.23;51.66
46722;BME280;32455;43.430;23.136;2023-04-26T09:14:10;97351.63;;;14.19;50.82
46722;BME280;32455;43.430;23.136;2023-04-26T09:16:56;97339.13;;;13.93;52.58
46722;BME280;32455;43.430;23.136;2023-04-26T09:19:41;97377.59;;;14.31;51.60
46722;BME280;32455;43.430;23.136;2023-04-26T09:22:36;97369.91;;;13.92;52.31
46722;BME280;32455;43.430;23.136;2023-04-26T09:25:30;97371.22;;;13.84;52.05
46722;BME280;32455;43.430;23.136;2023-04-26T09:28:20;97368.28;;;13.96;53.12
46722;BME280;32455;43.430;23.136;2023-04-26T09:31:06;97352.78;;;14.44;50.83
46722;BME280;32455;43.430;23.136;2023-04-26T09:33:58;97350.59;;;14.31;52.32
46722;BME280;32455;43.430;23.136;2023-04-26T09:36:54;97356.06;;;14.76;50.41
46722;BME280;32455;43.430;23.136;2023-04-26T09:39:41;97350.13;;;14.85;49.93
46722;BME280;32455;43.430;23.136;2023-04-26T09:42:26;97324.97;;;14.94;51.18
46722;BME280;32455;43.430;23.136;2023-04-26T09:45:12;97349.22;;;15.81;51.29
46722;BME280;32455;43.430;23.136;2023-04-26T09:48:25;97368.66;;;15.88;49.21
46722;BME280;32455;43.430;23.136;2023-04-26T09:51:12;97347.22;;;16.02;46.93
46722;BME280;32455;43.430;23.136;2023-04-26T09:53:57;97344.03;;;16.39;48.04
46722;BME280;32455;43.430;23.136;2023-04-26T09:56:58;97346.53;;;15.56;48.28
46722;BME280;32455;43.430;23.136;2023-04-26T09:59:46;97358.81;;;16.13;49.72
46722;BME280;32455;43.430;23.136;2023-04-26T10:02:31;97353.44;;;16.08;48.44
46722;BME280;32455;43.430;23.136;2023-04-26T10:05:17;97358.03;;;16.62;50.47
46722;BME280;32455;43.430;23.136;2023-04-26T10:08:02;97365.38;;;16.07;47.50
46722;BME280;32455;43.430;23.136;2023-04-26T10:10:49;97345.50;;;16.21;47.02
46722;BME280;32455;43.430;23.136;2023-04-26T10:13:35;97348.94;;;16.37;45.40
46722;BME280;32455;43.430;23.136;2023-04-26T10:16:21;97333.31;;;16.19;46.14
46722;BME280;32455;43.430;23.136;2023-04-26T10:19:07;97353.41;;;16.62;45.01
46722;BME280;32455;43.430;23.136;2023-04-26T10:21:56;97334.31;;;17.12;48.10
46722;BME280;32455;43.430;23.136;2023-04-26T10:24:44;97358.88;;;16.96;47.37
46722;BME280;32455;43.430;23.136;2023-04-26T10:30:31;97347.88;;;17.12;46.94
46722;BME280;32455;43.430;23.136;2023-04-26T10:33:16;97337.84;;;16.78;44.81
46722;BME280;32455;43.430;23.136;2023-04-26T10:36:04;97368.69;;;16.43;43.80
46722;BME280;32455;43.430;23.136;2023-04-26T10:39:18;97354.63;;;15.81;45.95
46722;BME280;32455;43.430;23.136;2023-04-26T10:42:27;97359.81;;;15.52;45.94
46722;BME280;32455;43.430;23.136;2023-04-26T10:45:24;97361.41;;;15.73;45.49
46722;BME280;32455;43.430;23.136;2023-04-26T10:48:16;97344.16;;;15.03;46.78
46722;BME280;32455;43.430;23.136;2023-04-26T10:59:23;97363.31;;;14.40;49.69
46722;BME280;32455;43.430;23.136;2023-04-26T11:02:11;97365.56;;;14.79;47.43
46722;BME280;32455;43.430;23.136;2023-04-26T11:04:57;97375.53;;;14.68;49.62
46722;BME280;32455;43.430;23.136;2023-04-26T11:07:43;97371.72;;;14.54;48.44
46722;BME280;32455;43.430;23.136;2023-04-26T11:10:29;97360.41;;;15.13;48.48
46722;BME280;32455;43.430;23.136;2023-04-26T11:13:15;97367.72;;;15.18;50.46
46722;BME280;32455;43.430;23.136;2023-04-26T11:16:02;97345.78;;;15.30;49.14
46722;BME280;32455;43.430;23.136;2023-04-26T11:18:48;97360.97;;;15.20;47.63
46722;BME280;32455;43.430;23.136;2023-04-26T11:21:35;97354.44;;;15.26;48.66
46722;BME280;32455;43.430;23.136;2023-04-26T11:24:30;97359.31;;;15.14;47.68
46722;BME280;32455;43.430;23.136;2023-04-26T11:27:16;97363.78;;;15.90;49.64
46722;BME280;32455;43.430;23.136;2023-04-26T11:30:04;97368.16;;;15.81;46.87
46722;BME280;32455;43.430;23.136;2023-04-26T11:32:49;97369.03;;;15.36;49.38
46722;BME280;32455;43.430;23.136;2023-04-26T11:35:35;97376.38;;;15.25;46.43
46722;BME280;32455;43.430;23.136;2023-04-26T11:38:27;97383.66;;;15.35;47.21
46722;BME280;32455;43.430;23.136;2023-04-26T11:41:12;97354.72;;;15.20;46.60
46722;BME280;32455;43.430;23.136;2023-04-26T11:43:58;97364.38;;;15.62;48.62
46722;BME280;32455;43.430;23.136;2023-04-26T11:46:42;97383.91;;;15.53;47.34
46722;BME280;32455;43.430;23.136;2023-04-26T11:49:27;97356.84;;;15.48;48.43
46722;BME280;32455;43.430;23.136;2023-04-26T11:52:12;97354.44;;;15.21;46.24
46722;BME280;32455;43.430;23.136;2023-04-26T11:55:03;97364.72;;;15.40;46.48
46722;BME280;32455;43.430;23.136;2023-04-26T11:57:50;97373.38;;;15.26;47.36
46722;BME280;32455;43.430;23.136;2023-04-26T12:00:36;97358.84;;;16.08;50.05
46722;BME280;32455;43.430;23.136;2023-04-26T12:03:22;97359.59;;;16.23;47.19
46722;BME280;32455;43.430;23.136;2023-04-26T12:06:08;97358.13;;;16.41;45.60
46722;BME280;32455;43.430;23.136;2023-04-26T12:08:55;97345.69;;;16.40;45.13
46722;BME280;32455;43.430;23.136;2023-04-26T12:11:47;97357.25;;;16.95;45.39
46722;BME280;32455;43.430;23.136;2023-04-26T12:14:37;97367.97;;;16.22;44.81
46722;BME280;32455;43.430;23.136;2023-04-26T12:17:22;97346.91;;;16.58;47.76
46722;BME280;32455;43.430;23.136;2023-04-26T12:20:12;97387.91;;;15.92;46.37
46722;BME280;32455;43.430;23.136;2023-04-26T12:23:05;97393.91;;;15.73;47.16
46722;BME280;32455;43.430;23.136;2023-04-26T12:25:55;97379.75;;;16.51;46.72
46722;BME280;32455;43.430;23.136;2023-04-26T12:28:41;97371.75;;;16.81;46.11
46722;BME280;32455;43.430;23.136;2023-04-26T12:31:27;97369.16;;;16.00;45.86
46722;BME280;32455;43.430;23.136;2023-04-26T12:34:12;97382.13;;;16.19;46.30
46722;BME280;32455;43.430;23.136;2023-04-26T12:36:57;97366.59;;;15.44;47.22
46722;BME280;32455;43.430;23.136;2023-04-26T12:39:43;97370.13;;;15.35;50.39
46722;BME280;32455;43.430;23.136;2023-04-26T12:42:28;97366.03;;;14.56;46.04
46722;BME280;32455;43.430;23.136;2023-04-26T12:45:14;97387.25;;;14.11;48.39
46722;BME280;32455;43.430;23.136;2023-04-26T12:48:00;97366.56;;;14.47;47.50
46722;BME280;32455;43.430;23.136;2023-04-26T12:50:45;97360.13;;;14.84;49.76
46722;BME280;32455;43.430;23.136;2023-04-26T12:53:31;97353.09;;;15.14;48.18
46722;BME280;32455;43.430;23.136;2023-04-26T12:56:16;97342.44;;;15.73;47.35
46722;BME280;32455;43.430;23.136;2023-04-26T12:59:02;97370.91;;;15.66;47.94
46722;BME280;32455;43.430;23.136;2023-04-26T13:01:47;97373.66;;;15.30;48.46
46722;BME280;32455;43.430;23.136;2023-04-26T13:04:33;97368.53;;;14.93;48.23
46722;BME280;32455;43.430;23.136;2023-04-26T13:07:18;97370.63;;;14.50;50.24
46722;BME280;32455;43.430;23.136;2023-04-26T13:10:04;97376.34;;;14.94;49.17
46722;BME280;32455;43.430;23.136;2023-04-26T13:12:51;97377.47;;;15.14;48.54
46722;BME280;32455;43.430;23.136;2023-04-26T13:15:38;97379.06;;;14.89;49.37
46722;BME280;32455;43.430;23.136;2023-04-26T13:18:24;97382.84;;;14.98;49.95
46722;BME280;32455;43.430;23.136;2023-04-26T13:21:09;97370.97;;;14.74;49.06
46722;BME280;32455;43.430;23.136;2023-04-26T13:23:55;97375.31;;;14.95;52.34
46722;BME280;32455;43.430;23.136;2023-04-26T13:26:40;97384.19;;;15.47;49.21
46722;BME280;32455;43.430;23.136;2023-04-26T13:29:25;97386.91;;;15.26;47.34
46722;BME280;32455;43.430;23.136;2023-04-26T13:32:11;97387.97;;;15.51;47.43
46722;BME280;32455;43.430;23.136;2023-04-26T13:34:56;97368.25;;;15.25;47.72
46722;BME280;32455;43.430;23.136;2023-04-26T13:37:41;97399.34;;;15.53;46.93
46722;BME280;32455;43.430;23.136;2023-04-26T13:40:26;97398.28;;;15.39;46.00
46722;BME280;32455;43.430;23.136;2023-04-26T13:43:11;97385.03;;;15.42;45.55
46722;BME280;32455;43.430;23.136;2023-04-26T13:45:55;97382.31;;;14.66;47.97
46722;BME280;32455;43.430;23.136;2023-04-26T13:48:41;97369.59;;;14.71;48.23
46722;BME280;32455;43.430;23.136;2023-04-26T13:51:27;97389.09;;;14.99;48.27
46722;BME280;32455;43.430;23.136;2023-04-26T13:54:16;97389.34;;;14.82;48.63
46722;BME280;32455;43.430;23.136;2023-04-26T13:57:03;97397.47;;;15.23;48.71
46722;BME280;32455;43.430;23.136;2023-04-26T13:59:48;97389.63;;;15.11;49.69
46722;BME280;32455;43.430;23.136;2023-04-26T14:02:33;97403.13;;;15.77;49.14
46722;BME280;32455;43.430;23.136;2023-04-26T14:05:19;97395.28;;;15.56;49.00
46722;BME280;32455;43.430;23.136;2023-04-26T14:08:04;97390.13;;;15.69;48.73
46722;BME280;32455;43.430;23.136;2023-04-26T14:10:50;97414.50;;;15.44;49.81
46722;BME280;32455;43.430;23.136;2023-04-26T14:13:35;97406.13;;;14.89;48.96
46722;BME280;32455;43.430;23.136;2023-04-26T14:16:22;97402.59;;;14.84;50.45
46722;BME280;32455;43.430;23.136;2023-04-26T14:19:08;97397.94;;;14.48;50.93
46722;BME280;32455;43.430;23.136;2023-04-26T14:21:53;97402.34;;;14.90;50.22
46722;BME280;32455;43.430;23.136;2023-04-26T14:24:38;97419.13;;;14.87;50.86
46722;BME280;32455;43.430;23.136;2023-04-26T14:27:23;97425.34;;;14.98;49.59
46722;BME280;32455;43.430;23.136;2023-04-26T14:30:08;97418.31;;;14.87;50.64
46722;BME280;32455;43.430;23.136;2023-04-26T14:32:54;97421.09;;;14.29;51.40
46722;BME280;32455;43.430;23.136;2023-04-26T14:35:39;97434.66;;;14.39;51.63
46722;BME280;32455;43.430;23.136;2023-04-26T14:38:26;97444.53;;;14.86;49.54
46722;BME280;32455;43.430;23.136;2023-04-26T14:41:15;97442.66;;;15.07;48.84